Time;durP1;ratioP1;P1;durP2;ratioP2;P2;SDS_P1;SDS_P2;PMS_P1;PMS_P2;Temp;Humidity;BMP_temperature;BMP_pressure;BME280_temperature;BME280_humidity;BME280_pressure;Samples;Min_cycle;Max_cycle;Signal;HPM_P1;HPM_P2
2023/03/08 00:02:13;;;;;;;28.13;17.27;;;6.60;99.90;;;;;;5052737;28;19916;-74
2023/03/08 00:04:39;;;;;;;;;;;6.60;99.90;;;;;;5071395;28;20487;-74
2023/03/08 00:07:04;;;;;;;28.38;17.77;;;6.60;99.90;;;;;;5070585;28;19919;-74
2023/03/08 00:09:30;;;;;;;;;;;6.60;99.90;;;;;;5053038;28;20031;-74
2023/03/08 00:11:56;;;;;;;27.95;17.20;;;6.60;99.90;;;;;;5052695;28;19913;-74
2023/03/08 00:14:21;;;;;;;;;;;6.50;99.90;;;;;;5070969;28;20136;-73
2023/03/08 00:16:47;;;;;;;31.70;18.33;;;6.50;99.90;;;;;;5052411;28;19934;-74
2023/03/08 00:19:13;;;;;;;28.75;17.73;;;6.50;99.90;;;;;;5052405;28;20028;-74
2023/03/08 00:21:38;;;;;;;;;;;6.50;99.90;;;;;;5070859;28;20033;-73
2023/03/08 00:24:04;;;;;;;24.90;16.48;;;6.50;99.90;;;;;;5052340;28;19908;-73
2023/03/08 00:26:30;;;;;;;;;;;6.50;99.90;;;;;;5052584;28;20032;-73
2023/03/08 00:28:56;;;;;;;27.95;17.75;;;6.50;99.90;;;;;;5052230;28;19908;-73
2023/03/08 00:31:21;;;;;;;;;;;6.50;99.90;;;;;;5070452;28;20028;-73
2023/03/08 00:33:51;;;;;;;32.78;20.75;;;6.50;99.90;;;;;;5052102;28;19969;-73
2023/03/08 00:36:18;;;;;;;30.67;20.27;;;6.40;99.90;;;;;;5052301;28;20078;-73
2023/03/08 00:38:45;;;;;;;32.90;21.02;;;6.40;99.90;;;;;;5069933;28;20030;-74
2023/03/08 00:41:11;;;;;;;35.13;21.63;;;6.50;99.90;;;;;;5070151;28;20032;-74
2023/03/08 00:43:37;;;;;;;;;;;6.40;99.90;;;;;;5070279;28;20055;-73
2023/03/08 00:46:04;;;;;;;31.40;21.23;;;6.40;99.90;;;;;;5051771;28;19912;-73
2023/03/08 00:48:30;;;;;;;34.05;21.50;;;6.40;99.90;;;;;;5069807;28;20033;-74
2023/03/08 00:50:55;;;;;;;;;;;6.40;99.90;;;;;;5051848;28;20474;-74
2023/03/08 00:53:21;;;;;;;31.45;20.92;;;6.40;99.90;;;;;;5051716;28;19921;-72
2023/03/08 00:55:51;;;;;;;;;;;6.40;99.90;;;;;;5070048;28;20035;-73
2023/03/08 00:58:17;;;;;;;30.65;20.40;;;6.30;99.90;;;;;;5069675;28;19904;-74
2023/03/08 01:00:43;;;;;;;;;;;6.30;99.90;;;;;;5070150;28;20034;-73
2023/03/08 01:03:08;;;;;;;32.03;20.58;;;6.30;99.90;;;;;;5069581;28;19931;-74
2023/03/08 01:05:38;;;;;;;;;;;6.30;99.90;;;;;;5070008;28;20029;-73
2023/03/08 01:08:04;;;;;;;37.90;22.95;;;6.30;99.90;;;;;;5051251;28;20416;-73
2023/03/08 01:10:30;;;;;;;57.05;33.45;;;6.20;99.90;;;;;;5051085;28;20028;-73
2023/03/08 01:12:55;;;;;;;;;;;6.20;99.90;;;;;;5069562;28;20507;-73
2023/03/08 01:15:21;;;;;;;50.38;30.73;;;6.10;99.90;;;;;;5051419;28;20695;-73
2023/03/08 01:17:46;;;;;;;;;;;6.10;99.90;;;;;;5051799;28;20112;-73
2023/03/08 01:20:12;;;;;;;50.17;29.10;;;6.00;99.90;;;;;;5069076;28;19954;-74
2023/03/08 01:22:38;;;;;;;;;;;5.90;99.90;;;;;;5051646;28;20097;-74
2023/03/08 01:25:04;;;;;;;47.25;26.70;;;5.90;99.90;;;;;;5051068;28;19908;-73
2023/03/08 01:27:29;;;;;;;;;;;5.80;99.90;;;;;;5050976;28;20504;-73
2023/03/08 01:29:55;;;;;;;61.30;34.80;;;5.70;99.90;;;;;;5050931;28;19908;-74
2023/03/08 01:32:20;;;;;;;;;;;5.70;99.90;;;;;;5069039;28;20020;-72
2023/03/08 01:34:46;;;;;;;44.92;26.95;;;5.70;99.90;;;;;;5050630;28;19962;-74
2023/03/08 01:37:12;;;;;;;41.63;26.77;;;5.70;99.90;;;;;;5051032;28;20067;-73
2023/03/08 01:39:37;;;;;;;;;;;5.70;99.90;;;;;;5051464;28;20115;-74
2023/03/08 01:42:06;;;;;;;50.10;29.77;;;5.70;99.90;;;;;;5050912;28;19904;-74
2023/03/08 01:44:52;;;;;;;47.08;26.65;;;5.70;99.90;;;;;;5050652;28;20048;-74
2023/03/08 01:47:26;;;;;;;41.42;25.38;;;5.70;99.90;;;;;;5068794;28;20024;-74
2023/03/08 01:49:59;;;;;;;43.80;24.00;;;5.80;99.90;;;;;;5068930;28;20020;-73
2023/03/08 01:52:31;;;;;;;39.95;24.23;;;5.80;99.90;;;;;;5068762;28;20417;-73
2023/03/08 01:55:16;;;;;;;41.00;25.35;;;5.80;99.90;;;;;;5068012;28;20513;-73
2023/03/08 01:57:48;;;;;;;39.85;23.98;;;5.80;99.90;;;;;;5068893;28;20036;-72
2023/03/08 02:00:16;;;;;;;37.95;21.83;;;5.80;99.90;;;;;;5068555;28;20062;-72
2023/03/08 02:03:03;;;;;;;39.85;23.65;;;5.80;99.90;;;;;;5068590;28;20029;-73
2023/03/08 02:05:29;;;;;;;40.65;24.42;;;5.80;99.90;;;;;;5050623;28;20350;-73
2023/03/08 02:07:55;;;;;;;38.63;24.75;;;5.80;99.90;;;;;;5050788;28;20060;-73
2023/03/08 02:10:21;;;;;;;;;;;5.80;99.90;;;;;;5068963;28;20602;-73
2023/03/08 02:12:47;;;;;;;44.40;24.05;;;5.70;99.90;;;;;;5068373;28;19914;-74
2023/03/08 02:15:17;;;;;;;35.08;22.73;;;5.60;99.90;;;;;;5050364;28;20039;-73
2023/03/08 02:17:43;;;;;;;40.50;22.33;;;5.50;99.90;;;;;;5068245;28;20051;-74
2023/03/08 02:20:09;;;;;;;;;;;5.30;99.90;;;;;;5050934;28;20036;-72
2023/03/08 02:22:39;;;;;;;37.35;23.27;;;5.20;99.90;;;;;;5068238;28;20770;-72
2023/03/08 02:25:21;;;;;;;37.10;24.35;;;5.10;99.90;;;;;;5068144;28;20489;-73
2023/03/08 02:27:48;;;;;;;38.17;24.13;;;5.00;99.90;;;;;;5050310;28;20473;-74
2023/03/08 02:30:16;;;;;;;34.80;23.23;;;5.00;99.90;;;;;;5068278;28;20086;-71
2023/03/08 02:32:42;;;;;;;44.83;25.35;;;4.90;99.90;;;;;;5050342;28;20025;-73
2023/03/08 02:35:08;;;;;;;;;;;4.90;99.90;;;;;;5050207;28;20409;-73
2023/03/08 02:37:37;;;;;;;34.65;22.65;;;4.90;99.90;;;;;;5050415;28;20341;-73
2023/03/08 02:40:03;;;;;;;44.92;26.42;;;4.90;99.90;;;;;;5068072;28;20029;-72
2023/03/08 02:42:28;;;;;;;;;;;4.90;99.90;;;;;;5050724;28;20497;-74
2023/03/08 02:44:54;;;;;;;42.10;25.00;;;4.90;99.90;;;;;;5071972;28;19927;-73
2023/03/08 02:47:19;;;;;;;;;;;4.80;99.90;;;;;;5072873;28;20419;-73
2023/03/08 02:49:45;;;;;;;45.08;27.25;;;4.80;99.90;;;;;;5071717;28;19904;-72
2023/03/08 02:52:11;;;;;;;;;;;4.70;99.90;;;;;;5054653;28;20032;-74
2023/03/08 02:54:36;;;;;;;48.72;28.40;;;4.60;99.90;;;;;;5053890;28;19952;-74
2023/03/08 02:57:02;;;;;;;;;;;4.50;99.90;;;;;;5072230;28;20773;-74
2023/03/08 02:59:29;;;;;;;44.85;26.48;;;4.50;99.90;;;;;;5054071;28;19954;-75
2023/03/08 03:01:56;;;;;;;49.70;28.95;;;4.40;99.90;;;;;;5071813;28;20021;-73
2023/03/08 03:04:21;;;;;;;56.63;29.83;;;4.30;99.90;;;;;;5053476;28;20128;-73
2023/03/08 03:06:47;;;;;;;;;;;4.20;99.90;;;;;;5053940;28;20103;-74
2023/03/08 03:09:13;;;;;;;52.55;28.42;;;4.10;99.90;;;;;;5053514;28;19904;-73
2023/03/08 03:11:39;;;;;;;;;;;4.10;99.90;;;;;;5054115;28;20139;-74
2023/03/08 03:14:05;;;;;;;45.97;26.10;;;4.00;99.90;;;;;;5053346;28;19912;-74
2023/03/08 03:16:30;;;;;;;;;;;4.00;99.90;;;;;;5071804;28;20504;-74
2023/03/08 03:18:56;;;;;;;56.17;28.00;;;4.00;99.90;;;;;;5071396;28;19995;-74
2023/03/08 03:21:22;;;;;;;;;;;3.90;99.90;;;;;;5054040;28;20557;-75
2023/03/08 03:23:49;;;;;;;55.67;30.60;;;3.90;99.90;;;;;;5053616;28;20368;-73
2023/03/08 03:26:17;;;;;;;52.20;27.42;;;3.80;99.90;;;;;;5072296;28;20051;-73
2023/03/08 03:28:44;;;;;;;55.45;29.15;;;3.80;99.90;;;;;;5053435;28;20463;-74
2023/03/08 03:31:13;;;;;;;50.95;30.42;;;3.80;99.90;;;;;;5053061;28;20111;-74
2023/03/08 03:33:39;;;;;;;55.88;31.23;;;3.70;99.90;;;;;;5071128;28;20044;-74
2023/03/08 03:36:06;;;;;;;57.13;31.23;;;3.70;99.90;;;;;;5071388;28;20058;-74
2023/03/08 03:38:32;;;;;;;60.60;32.88;;;3.60;99.90;;;;;;5071029;28;20029;-73
2023/03/08 03:41:08;;;;;;;;;;;3.50;99.90;;;;;;5053415;28;20078;-76
2023/03/08 03:43:35;;;;;;;59.58;31.27;;;3.40;99.90;;;;;;5070840;28;19923;-75
2023/03/08 03:46:03;;;;;;;51.13;29.55;;;3.40;99.90;;;;;;5071058;28;20032;-75
2023/03/08 03:48:28;;;;;;;55.80;31.63;;;3.30;99.90;;;;;;5070867;28;20447;-73
2023/03/08 03:50:55;;;;;;;;;;;3.30;99.90;;;;;;5071224;28;20058;-75
2023/03/08 03:53:21;;;;;;;59.83;31.70;;;3.20;99.90;;;;;;5070449;28;19931;-73
2023/03/08 03:55:47;;;;;;;;;;;3.10;99.90;;;;;;5070998;28;20497;-75
2023/03/08 03:58:12;;;;;;;51.67;29.13;;;3.20;99.90;;;;;;5070880;28;20720;-72
2023/03/08 04:00:38;;;;;;;;;;;3.20;99.90;;;;;;5071258;28;20432;-75
2023/03/08 04:03:03;;;;;;;64.25;35.53;;;3.20;99.90;;;;;;5070557;28;20757;-73
2023/03/08 04:05:29;;;;;;;;;;;3.30;99.90;;;;;;5071397;28;20048;-73
2023/03/08 04:07:54;;;;;;;59.85;33.80;;;3.30;99.90;;;;;;5070801;28;19905;-74
2023/03/08 04:10:20;;;;;;;;;;;3.30;99.90;;;;;;5071180;28;20048;-74
2023/03/08 04:12:51;;;;;;;52.58;30.20;;;3.30;99.90;;;;;;5052572;28;19908;-74
2023/03/08 04:15:17;;;;;;;55.30;29.30;;;3.20;99.90;;;;;;5070253;28;20040;-74
2023/03/08 04:17:43;;;;;;;;;;;3.20;99.90;;;;;;5070992;28;20436;-73
2023/03/08 04:20:10;;;;;;;47.70;27.98;;;3.20;99.90;;;;;;5052367;28;19912;-73
2023/03/08 04:22:36;;;;;;;47.08;27.20;;;3.10;99.90;;;;;;5070170;28;20508;-74
2023/03/08 04:25:02;;;;;;;;;;;3.00;99.90;;;;;;5070252;28;20037;-74
2023/03/08 04:27:28;;;;;;;55.05;28.35;;;3.00;99.90;;;;;;5052306;28;19904;-74
2023/03/08 04:29:53;;;;;;;;;;;2.90;99.90;;;;;;5070789;28;20035;-73
2023/03/08 04:32:19;;;;;;;60.78;30.95;;;2.90;99.90;;;;;;5070154;28;19905;-74
2023/03/08 04:34:45;;;;;;;;;;;2.80;99.90;;;;;;5052490;28;20106;-74
2023/03/08 04:37:11;;;;;;;53.10;30.17;;;2.70;99.90;;;;;;5052774;28;19994;-74
2023/03/08 04:39:37;;;;;;;58.55;33.08;;;2.70;99.90;;;;;;5069977;28;20478;-74
2023/03/08 04:42:03;;;;;;;;;;;2.60;99.90;;;;;;5070433;28;20038;-74
2023/03/08 04:44:29;;;;;;;50.55;28.65;;;2.60;99.90;;;;;;5051770;28;20479;-74
2023/03/08 04:46:54;;;;;;;;;;;2.50;99.90;;;;;;5070313;28;20063;-74
2023/03/08 04:49:20;;;;;;;52.20;26.73;;;2.50;99.90;;;;;;5052074;28;19909;-75
2023/03/08 04:51:45;;;;;;;;;;;2.50;99.90;;;;;;5052343;28;20033;-75
2023/03/08 04:54:11;;;;;;;52.33;27.33;;;2.40;99.90;;;;;;5051844;28;19927;-74
2023/03/08 04:56:37;;;;;;;51.85;27.90;;;2.40;99.90;;;;;;5051906;28;20035;-75
2023/03/08 04:59:03;;;;;;;;;;;2.40;99.90;;;;;;5051974;28;20028;-74
2023/03/08 05:01:28;;;;;;;51.20;26.50;;;2.40;99.90;;;;;;5051681;28;19915;-74
2023/03/08 05:03:54;;;;;;;;;;;2.40;99.90;;;;;;5052160;28;20056;-74
2023/03/08 05:06:23;;;;;;;54.97;29.30;;;2.40;99.90;;;;;;5050867;28;19908;-75
2023/03/08 05:08:48;;;;;;;52.53;28.10;;;2.40;99.90;;;;;;5069416;28;20077;-73
2023/03/08 05:11:17;;;;;;;;;;;2.40;99.90;;;;;;5051855;28;20028;-74
2023/03/08 05:13:42;;;;;;;47.90;28.48;;;2.40;99.90;;;;;;5051229;28;19923;-75
2023/03/08 05:16:08;;;;;;;;;;;2.30;99.90;;;;;;5052075;28;20112;-74
2023/03/08 05:18:34;;;;;;;54.90;28.77;;;2.30;99.90;;;;;;5051359;28;19958;-74
2023/03/08 05:21:08;;;;;;;51.97;28.70;;;2.20;99.90;;;;;;5069047;28;20052;-75
2023/03/08 05:23:34;;;;;;;47.55;27.58;;;2.20;99.90;;;;;;5069086;28;20048;-74
2023/03/08 05:26:01;;;;;;;;;;;2.10;99.90;;;;;;5051623;28;20508;-74
2023/03/08 05:28:29;;;;;;;50.53;26.42;;;2.10;99.90;;;;;;5069174;28;19909;-75
2023/03/08 05:31:24;;;;;;;45.80;25.90;;;2.10;99.90;;;;;;5068980;28;20516;-74
2023/03/08 05:33:51;;;;;;;44.58;24.77;;;2.10;99.90;;;;;;5051198;28;20076;-74
2023/03/08 05:36:17;;;;;;;47.40;27.50;;;2.00;99.90;;;;;;5068813;28;20086;-75
2023/03/08 05:38:43;;;;;;;41.90;23.08;;;1.90;99.90;;;;;;5069001;28;20370;-74
2023/03/08 05:41:13;;;;;;;;;;;2.00;99.90;;;;;;5051436;28;20027;-74
2023/03/08 05:43:38;;;;;;;44.10;23.40;;;1.90;99.90;;;;;;5050478;28;19916;-74
2023/03/08 05:46:05;;;;;;;;;;;1.90;99.90;;;;;;5068958;28;20040;-74
2023/03/08 05:48:33;;;;;;;47.30;25.15;;;2.00;99.90;;;;;;5068892;28;19908;-74
2023/03/08 05:51:07;;;;;;;49.92;27.73;;;2.00;99.90;;;;;;5050235;28;20180;-75
2023/03/08 05:53:33;;;;;;;47.63;25.63;;;2.00;99.90;;;;;;5050703;28;20040;-75
2023/03/08 05:56:17;;;;;;;51.28;28.42;;;2.10;99.90;;;;;;5050535;28;20056;-74
2023/03/08 05:58:43;;;;;;;49.88;28.55;;;2.30;99.90;;;;;;5068604;28;20029;-73
2023/03/08 06:01:24;;;;;;;48.97;26.30;;;2.50;99.90;;;;;;5050680;28;20078;-74
2023/03/08 06:03:52;;;;;;;48.05;29.08;;;2.60;99.90;;;;;;5050431;28;20501;-74
2023/03/08 06:06:19;;;;;;;51.33;31.05;;;2.80;99.90;;;;;;5050346;28;20032;-75
2023/03/08 06:08:45;;;;;;;52.17;29.23;;;2.90;99.90;;;;;;5068321;28;20040;-75
2023/03/08 06:11:11;;;;;;;54.33;30.45;;;3.00;99.90;;;;;;5050402;28;20090;-75
2023/03/08 06:13:37;;;;;;;;;;;3.10;99.90;;;;;;5068850;28;20083;-75
2023/03/08 06:16:03;;;;;;;58.88;33.40;;;3.20;99.90;;;;;;5050292;28;19909;-75
2023/03/08 06:18:29;;;;;;;51.72;31.40;;;3.30;99.90;;;;;;5049662;28;20032;-74
2023/03/08 06:21:04;;;;;;;;;;;3.30;99.90;;;;;;5068292;28;20463;-74
2023/03/08 06:23:31;;;;;;;58.25;30.75;;;3.40;99.90;;;;;;5068339;28;19908;-75
2023/03/08 06:25:57;;;;;;;55.20;29.75;;;3.40;99.90;;;;;;5050330;28;20063;-75
2023/03/08 06:28:24;;;;;;;62.88;34.60;;;3.50;99.90;;;;;;5050244;28;20028;-74
2023/03/08 06:30:50;;;;;;;55.15;32.22;;;3.70;99.90;;;;;;5068106;28;20032;-74
2023/03/08 06:33:20;;;;;;;;;;;3.90;99.90;;;;;;5050635;28;20058;-74
2023/03/08 06:36:15;;;;;;;52.47;30.02;;;4.10;99.90;;;;;;5068094;28;19912;-74
2023/03/08 06:38:42;;;;;;;53.10;30.58;;;4.40;99.90;;;;;;5068320;28;20028;-75
2023/03/08 06:41:09;;;;;;;54.63;30.63;;;4.70;99.90;;;;;;5049783;28;20024;-74
2023/03/08 06:43:35;;;;;;;57.22;32.20;;;5.10;99.90;;;;;;5049964;28;20063;-75
2023/03/08 06:46:12;;;;;;;;;;;5.80;99.90;;;;;;5050506;28;20048;-74
2023/03/08 06:48:38;;;;;;;53.15;28.38;;;6.50;99.90;;;;;;5049990;28;19908;-74
2023/03/08 06:51:04;;;;;;;;;;;7.30;99.90;;;;;;5068261;28;20404;-75
2023/03/08 06:53:30;;;;;;;36.53;23.15;;;7.90;99.90;;;;;;5067886;28;19913;-75
2023/03/08 06:55:56;;;;;;;;;;;8.50;99.90;;;;;;5069198;28;20550;-75
2023/03/08 06:58:22;;;;;;;37.97;23.05;;;8.80;99.90;;;;;;5068134;28;19954;-75
2023/03/08 07:00:48;;;;;;;37.20;22.33;;;9.20;99.90;;;;;;5067977;28;20135;-75
2023/03/08 07:03:14;;;;;;;;;;;9.60;99.90;;;;;;5050388;28;20029;-74
2023/03/08 07:05:40;;;;;;;40.20;23.30;;;10.10;99.90;;;;;;5068197;28;19912;-75
2023/03/08 07:08:06;;;;;;;;;;;10.60;99.90;;;;;;5068291;28;20052;-75
2023/03/08 07:10:32;;;;;;;33.35;20.23;;;11.10;99.90;;;;;;5050043;28;19908;-75
2023/03/08 07:12:58;;;;;;;30.50;18.88;;;11.60;98.90;;;;;;5067700;28;20029;-75
2023/03/08 07:15:25;;;;;;;30.00;18.52;;;12.10;95.10;;;;;;5049733;28;20094;-75
2023/03/08 07:17:54;;;;;;;25.90;17.80;;;12.40;93.90;;;;;;5067906;28;20516;-74
2023/03/08 07:20:21;;;;;;;30.00;17.35;;;12.70;92.40;;;;;;5049700;28;20090;-75
2023/03/08 07:22:47;;;;;;;28.27;18.80;;;12.90;89.50;;;;;;5067634;28;20035;-75
2023/03/08 07:25:13;;;;;;;;;;;13.10;84.80;;;;;;5068058;28;20032;-75
2023/03/08 07:27:39;;;;;;;24.85;16.15;;;13.20;80.90;;;;;;5067673;28;20385;-74
2023/03/08 07:30:08;;;;;;;27.25;16.73;;;13.40;80.40;;;;;;5052469;28;20040;-75
2023/03/08 07:32:34;;;;;;;24.90;15.98;;;13.70;80.50;;;;;;5053421;28;20112;-75
2023/03/08 07:35:00;;;;;;;25.10;15.73;;;14.10;76.20;;;;;;5070830;28;20386;-75
2023/03/08 07:37:26;;;;;;;24.63;14.80;;;14.50;72.80;;;;;;5071286;28;20542;-75
2023/03/08 07:39:51;;;;;;;;;;;14.40;72.20;;;;;;5053604;28;20039;-76
2023/03/08 07:42:17;;;;;;;24.50;15.45;;;13.90;71.00;;;;;;5071392;28;19908;-75
2023/03/08 07:44:43;;;;;;;;;;;13.40;73.50;;;;;;5071466;28;20574;-75
2023/03/08 07:47:09;;;;;;;23.33;14.93;;;13.00;74.90;;;;;;5071212;28;19945;-74
2023/03/08 07:49:35;;;;;;;23.77;13.88;;;12.60;78.50;;;;;;5070809;28;20070;-75
2023/03/08 07:52:00;;;;;;;;;;;12.60;75.00;;;;;;5071318;28;20111;-75
2023/03/08 07:54:26;;;;;;;23.10;14.20;;;12.30;76.80;;;;;;5052556;28;20442;-75
2023/03/08 07:56:52;;;;;;;;;;;11.90;76.20;;;;;;5053232;28;20513;-74
2023/03/08 07:59:18;;;;;;;24.15;15.07;;;11.40;79.70;;;;;;5070873;28;20670;-75
2023/03/08 08:01:44;;;;;;;20.63;14.15;;;10.90;85.80;;;;;;5070750;28;20024;-74
2023/03/08 08:04:11;;;;;;;;;;;10.70;85.90;;;;;;5071194;28;20100;-75
2023/03/08 08:06:37;;;;;;;25.83;15.75;;;10.50;87.70;;;;;;5052703;28;19924;-74
2023/03/08 08:09:03;;;;;;;24.27;13.98;;;10.30;88.10;;;;;;5052425;28;20051;-75
2023/03/08 08:11:29;;;;;;;;;;;10.20;90.50;;;;;;5070770;28;20025;-75
2023/03/08 08:13:54;;;;;;;24.80;14.40;;;10.00;91.60;;;;;;5070530;28;20341;-75
2023/03/08 08:16:20;;;;;;;;;;;10.00;91.70;;;;;;5070969;28;20036;-76
2023/03/08 08:18:46;;;;;;;26.08;14.38;;;10.10;91.30;;;;;;5070303;28;19908;-75
2023/03/08 08:21:15;;;;;;;;;;;10.20;90.50;;;;;;5052718;28;20370;-74
2023/03/08 08:23:42;;;;;;;20.48;11.15;;;10.40;86.40;;;;;;5052366;28;19908;-74
2023/03/08 08:26:16;;;;;;;15.75;9.07;;;10.40;83.70;;;;;;5052318;28;20135;-73
2023/03/08 08:28:44;;;;;;;16.52;9.40;;;11.00;77.90;;;;;;5063899;28;20028;-73
2023/03/08 08:31:13;;;;;;;18.35;10.40;;;11.70;73.00;;;;;;5052170;28;20028;-73
2023/03/08 08:33:38;;;;;;;14.57;8.43;;;12.30;69.80;;;;;;5070116;28;20044;-72
2023/03/08 08:36:05;;;;;;;;;;;12.40;65.50;;;;;;5052917;28;20020;-74
2023/03/08 08:38:31;;;;;;;13.57;7.65;;;12.50;62.50;;;;;;5069646;28;19908;-73
2023/03/08 08:41:02;;;;;;;12.65;7.63;;;13.00;61.50;;;;;;5050775;28;20031;-74
2023/03/08 08:43:28;;;;;;;10.43;6.47;;;13.60;59.00;;;;;;5069925;28;20390;-73
2023/03/08 08:45:56;;;;;;;10.15;6.20;;;14.20;57.30;;;;;;5069925;28;20085;-73
2023/03/08 08:48:22;;;;;;;11.50;6.55;;;14.90;55.70;;;;;;5051966;28;20024;-75
2023/03/08 08:50:48;;;;;;;13.95;6.93;;;15.40;53.30;;;;;;5051580;28;20035;-74
2023/03/08 08:53:14;;;;;;;10.57;6.60;;;15.80;52.20;;;;;;5069652;28;20028;-74
2023/03/08 08:55:40;;;;;;;13.70;8.18;;;16.20;51.40;;;;;;5051738;28;20123;-74
2023/03/08 08:58:06;;;;;;;13.30;7.95;;;16.40;51.60;;;;;;5069689;28;20601;-74
2023/03/08 09:00:33;;;;;;;11.55;7.30;;;16.70;51.40;;;;;;5069636;28;20447;-74
2023/03/08 09:03:00;;;;;;;14.68;8.10;;;17.00;50.10;;;;;;5069370;28;20544;-77
2023/03/08 09:05:26;;;;;;;10.63;6.68;;;16.90;50.00;;;;;;5069614;28;20074;-74
2023/03/08 09:08:00;;;;;;;13.02;6.82;;;16.80;48.60;;;;;;5051794;28;20585;-75
2023/03/08 09:10:28;;;;;;;15.88;7.80;;;16.80;48.90;;;;;;5051576;28;20036;-74
2023/03/08 09:12:54;;;;;;;10.55;7.28;;;16.90;48.80;;;;;;5069249;28;20031;-75
2023/03/08 09:15:23;;;;;;;12.98;7.50;;;17.00;48.70;;;;;;5069344;28;20687;-75
2023/03/08 09:17:49;;;;;;;11.45;7.15;;;17.00;47.90;;;;;;5051256;28;20017;-75
2023/03/08 09:20:15;;;;;;;11.15;7.22;;;16.70;47.50;;;;;;5069029;28;20048;-74
2023/03/08 09:22:41;;;;;;;9.52;6.72;;;16.00;47.90;;;;;;5069142;28;20085;-74
2023/03/08 09:25:08;;;;;;;9.82;6.57;;;15.00;48.90;;;;;;5068930;28;20032;-74
2023/03/08 09:27:35;;;;;;;13.75;7.25;;;14.20;50.20;;;;;;5069045;28;20029;-75
2023/03/08 09:30:01;;;;;;;13.57;8.27;;;13.50;52.30;;;;;;5051425;28;20055;-75
2023/03/08 09:32:26;;;;;;;;;;;13.00;53.10;;;;;;5069596;28;20118;-74
2023/03/08 09:34:52;;;;;;;24.90;12.45;;;12.90;53.60;;;;;;5068429;28;20011;-74
2023/03/08 09:37:18;;;;;;;11.98;6.78;;;12.90;53.70;;;;;;5068951;28;20016;-75
2023/03/08 09:39:44;;;;;;;;;;;12.90;53.50;;;;;;5069330;28;20035;-74
2023/03/08 09:42:37;;;;;;;16.58;9.05;;;12.90;53.50;;;;;;5068868;28;19999;-74
2023/03/08 09:45:25;;;;;;;12.90;7.70;;;13.20;53.50;;;;;;5064892;28;20141;-74
2023/03/08 09:47:50;;;;;;;14.65;7.00;;;13.50;53.90;;;;;;5068765;28;20033;-75
2023/03/08 09:50:26;;;;;;;;;;;13.40;52.40;;;;;;5051236;28;20028;-75
2023/03/08 09:52:59;;;;;;;15.95;7.50;;;13.20;52.50;;;;;;5068026;28;19904;-74
2023/03/08 09:55:30;;;;;;;9.77;5.93;;;12.90;52.80;;;;;;5068667;28;20064;-74
2023/03/08 09:58:01;;;;;;;9.48;5.85;;;13.60;53.60;;;;;;5068720;28;20059;-75
2023/03/08 10:00:36;;;;;;;16.08;8.90;;;14.70;51.60;;;;;;5050481;28;20020;-74
2023/03/08 10:03:16;;;;;;;12.73;7.47;;;15.60;50.00;;;;;;5068233;28;20090;-75
2023/03/08 10:05:56;;;;;;;28.38;10.70;;;16.20;48.70;;;;;;5068242;28;20582;-74
2023/03/08 10:08:26;;;;;;;17.48;9.38;;;16.80;47.50;;;;;;5068307;28;20501;-75
2023/03/08 10:10:59;;;;;;;9.57;6.32;;;17.10;46.60;;;;;;5068477;28;20103;-75
2023/03/08 10:13:42;;;;;;;13.18;6.22;;;16.70;46.30;;;;;;5068279;28;20032;-74
2023/03/08 10:16:23;;;;;;;15.77;10.45;;;16.00;47.20;;;;;;5068411;28;20024;-73
2023/03/08 10:19:14;;;;;;;24.33;11.07;;;15.50;49.20;;;;;;5068589;28;20347;-75
2023/03/08 10:21:43;;;;;;;15.45;9.85;;;14.70;50.70;;;;;;5039521;28;20053;-75
2023/03/08 10:24:39;;;;;;;18.17;10.48;;;14.10;52.00;;;;;;5068488;28;20028;-75
2023/03/08 10:27:14;;;;;;;104.20;41.70;;;14.00;53.10;;;;;;5043756;28;20017;-75
2023/03/08 10:29:50;;;;;;;19.35;11.75;;;14.40;53.70;;;;;;5068231;28;20043;-75
2023/03/08 10:32:16;;;;;;;16.65;10.00;;;14.70;52.60;;;;;;5050207;28;20029;-75
2023/03/08 10:34:42;;;;;;;13.90;9.00;;;15.00;51.50;;;;;;5049856;28;20052;-75
2023/03/08 10:37:08;;;;;;;14.55;9.52;;;15.50;51.00;;;;;;5050146;28;20493;-75
2023/03/08 10:39:36;;;;;;;13.52;8.75;;;16.10;49.90;;;;;;5068342;28;20124;-75
2023/03/08 10:42:13;;;;;;;13.85;8.60;;;16.40;49.00;;;;;;5050508;28;20082;-75
2023/03/08 10:44:52;;;;;;;14.50;8.98;;;16.70;48.30;;;;;;5067418;28;20163;-74
2023/03/08 10:47:28;;;;;;;15.75;8.77;;;16.50;48.10;;;;;;5067972;28;20040;-77
2023/03/08 10:50:20;;;;;;;13.63;8.70;;;15.80;48.70;;;;;;5067978;28;20546;-75
2023/03/08 10:52:48;;;;;;;13.73;8.40;;;15.20;49.90;;;;;;5067756;28;20501;-75
2023/03/08 10:55:17;;;;;;;18.33;9.38;;;14.60;50.80;;;;;;5049935;28;20040;-75
2023/03/08 10:57:54;;;;;;;13.05;7.90;;;14.40;51.70;;;;;;5068059;28;20906;-75
2023/03/08 11:00:24;;;;;;;15.43;9.80;;;13.80;51.90;;;;;;5050032;28;20101;-74
2023/03/08 11:03:00;;;;;;;15.05;9.77;;;13.40;52.90;;;;;;5067893;28;20443;-75
2023/03/08 11:05:26;;;;;;;14.30;8.75;;;13.20;54.10;;;;;;5053199;28;20029;-74
2023/03/08 11:07:53;;;;;;;;;;;13.20;54.70;;;;;;5054070;28;20032;-75
2023/03/08 11:10:24;;;;;;;498.50;237.35;;;13.10;54.60;;;;;;5072005;28;20438;-75
2023/03/08 11:13:01;;;;;;;292.75;125.15;;;13.20;54.60;;;;;;5053707;28;20412;-75
2023/03/08 11:15:29;;;;;;;80.40;49.05;;;13.20;55.20;;;;;;5053710;28;20044;-76
2023/03/08 11:18:08;;;;;;;15.20;9.68;;;13.30;54.20;;;;;;5071514;28;20028;-75
2023/03/08 11:20:44;;;;;;;12.90;8.82;;;13.50;54.20;;;;;;5071627;28;20070;-75
2023/03/08 11:23:34;;;;;;;11.77;7.82;;;13.60;52.70;;;;;;5053461;28;20505;-75
2023/03/08 11:26:26;;;;;;;10.18;6.28;;;13.70;52.30;;;;;;5071467;28;20037;-75
2023/03/08 11:29:03;;;;;;;9.63;6.03;;;13.70;52.90;;;;;;5053555;28;20063;-75
2023/03/08 11:31:41;;;;;;;10.63;6.75;;;13.70;52.20;;;;;;5071267;28;20028;-74
2023/03/08 11:34:49;;;;;;;10.85;7.28;;;13.80;51.90;;;;;;5053201;28;20033;-74
2023/03/08 11:37:40;;;;;;;10.68;6.95;;;14.00;51.80;;;;;;5052521;28;20131;-75
2023/03/08 11:40:46;;;;;;;17.23;10.07;;;14.10;50.80;;;;;;5052903;28;20029;-75
2023/03/08 11:43:20;;;;;;;18.35;10.73;;;14.10;50.70;;;;;;5070976;28;20033;-73
2023/03/08 11:46:22;;;;;;;19.83;9.90;;;14.10;50.50;;;;;;5071093;28;20040;-74
2023/03/08 11:48:58;;;;;;;14.80;7.50;;;14.00;51.20;;;;;;5052928;28;20031;-75
2023/03/08 11:51:32;;;;;;;14.10;9.15;;;13.90;50.30;;;;;;5070809;28;20029;-75
2023/03/08 11:54:20;;;;;;;19.15;8.50;;;13.70;51.80;;;;;;5070797;28;20028;-76
2023/03/08 11:56:55;;;;;;;21.25;9.68;;;13.50;51.80;;;;;;5071343;28;20086;-75
2023/03/08 11:59:42;;;;;;;15.40;9.35;;;13.50;52.30;;;;;;5052308;28;20036;-75
2023/03/08 12:02:09;;;;;;;27.70;14.63;;;13.50;52.80;;;;;;5052964;28;20047;-75
2023/03/08 12:04:52;;;;;;;54.97;27.92;;;13.50;52.70;;;;;;5052618;28;20055;-75
2023/03/08 12:07:31;;;;;;;78.53;39.83;;;13.60;52.20;;;;;;5071782;28;20391;-74
2023/03/08 12:10:11;;;;;;;77.20;40.30;;;13.60;51.70;;;;;;5070676;28;20024;-75
2023/03/08 12:12:48;;;;;;;18.40;11.10;;;13.50;52.20;;;;;;5070527;28;20485;-75
2023/03/08 12:15:27;;;;;;;12.80;6.88;;;13.50;52.00;;;;;;5052296;28;20502;-75
2023/03/08 12:17:59;;;;;;;10.50;6.57;;;13.50;52.90;;;;;;5052489;28;20032;-75
2023/03/08 12:20:30;;;;;;;9.55;6.22;;;13.60;52.10;;;;;;5052255;28;20127;-76
2023/03/08 12:23:12;;;;;;;14.60;6.57;;;13.60;52.10;;;;;;5070098;28;20074;-75
2023/03/08 12:25:40;;;;;;;9.10;5.28;;;13.70;51.30;;;;;;5070324;28;20115;-75
2023/03/08 12:28:30;;;;;;;10.35;6.05;;;13.80;50.80;;;;;;5070355;28;20099;-75
2023/03/08 12:31:14;;;;;;;10.52;6.07;;;13.70;51.10;;;;;;5051998;28;20033;-75
2023/03/08 12:33:39;;;;;;;7.15;4.78;;;13.70;50.90;;;;;;5052285;28;20035;-76
2023/03/08 12:36:06;;;;;;;;;;;13.80;49.70;;;;;;5052949;28;20040;-76
2023/03/08 12:38:41;;;;;;;7.22;4.40;;;13.70;48.80;;;;;;5070406;28;19908;-76
2023/03/08 12:41:27;;;;;;;7.28;4.18;;;13.60;48.60;;;;;;5069947;28;20028;-76
2023/03/08 12:44:05;;;;;;;10.75;5.45;;;13.70;49.20;;;;;;5051933;28;20057;-75
2023/03/08 12:46:49;;;;;;;12.65;6.28;;;13.70;49.20;;;;;;5069926;28;20060;-75
2023/03/08 12:49:39;;;;;;;11.30;6.88;;;13.70;49.10;;;;;;5069889;28;20537;-75
2023/03/08 12:52:22;;;;;;;13.60;7.93;;;13.80;49.70;;;;;;5069135;28;20141;-76
2023/03/08 12:55:01;;;;;;;16.25;11.52;;;13.90;49.90;;;;;;5069521;28;20036;-75
2023/03/08 12:57:33;;;;;;;50.30;30.83;;;13.90;51.30;;;;;;5069775;28;20020;-74
2023/03/08 13:00:18;;;;;;;25.88;15.43;;;13.80;52.00;;;;;;5069462;28;20044;-75
2023/03/08 13:02:44;;;;;;;16.98;10.23;;;13.70;51.90;;;;;;5069559;28;20458;-74
2023/03/08 13:05:17;;;;;;;15.98;10.13;;;13.70;52.30;;;;;;5069493;28;20086;-75
2023/03/08 13:08:11;;;;;;;18.50;11.68;;;13.70;52.50;;;;;;5069612;28;20087;-76
2023/03/08 13:10:40;;;;;;;14.90;9.43;;;13.60;52.60;;;;;;5043899;28;20143;-74
2023/03/08 13:13:09;;;;;;;31.27;10.13;;;13.50;53.00;;;;;;5051235;28;20436;-76